createdAt,value
2018-09-24T00:00:41.436Z,1.60
2018-09-24T00:01:49.356Z,1.70
2018-09-24T00:02:41.480Z,2.00
2018-09-24T00:03:41.419Z,1.20
2018-09-24T00:04:41.403Z,1.60
2018-09-24T00:05:41.363Z,1.50
2018-09-24T00:06:41.385Z,1.40
2018-09-24T00:07:41.354Z,1.30
2018-09-24T00:08:41.345Z,1.80
2018-09-24T00:09:41.327Z,1.20
2018-09-24T00:10:41.306Z,1.50
2018-09-24T00:11:41.299Z,1.60
2018-09-24T00:12:41.306Z,1.00
2018-09-24T00:13:41.274Z,1.10
2018-09-24T00:14:41.316Z,1.40
2018-09-24T00:15:41.264Z,1.00
2018-09-24T00:16:41.239Z,1.30
2018-09-24T00:17:41.229Z,1.40
2018-09-24T00:18:41.235Z,1.30
2018-09-24T00:19:41.218Z,1.30
2018-09-24T00:20:41.213Z,1.50
2018-09-24T00:21:41.187Z,1.50
2018-09-24T00:22:41.174Z,1.70
2018-09-24T00:23:41.172Z,1.40
2018-09-24T00:24:41.169Z,1.20
2018-09-24T00:25:41.141Z,1.20
2018-09-24T00:26:41.143Z,2.00
2018-09-24T00:27:41.119Z,1.10
2018-09-24T00:28:41.106Z,1.20
2018-09-24T00:29:41.113Z,1.30
2018-09-24T00:30:41.098Z,1.20
2018-09-24T00:31:41.073Z,1.50
2018-09-24T00:32:41.095Z,1.10
2018-09-24T00:33:41.050Z,1.10
2018-09-24T00:34:41.060Z,1.50
2018-09-24T00:35:41.044Z,1.20
2018-09-24T00:36:41.036Z,1.80
2018-09-24T00:37:41.007Z,1.80
2018-09-24T00:38:41.031Z,1.20
2018-09-24T00:39:40.984Z,1.60
2018-09-24T00:40:40.973Z,1.50
2018-09-24T00:41:40.964Z,1.40
2018-09-24T00:42:40.970Z,1.00
2018-09-24T00:43:40.973Z,1.70
2018-09-24T00:44:40.957Z,1.30
2018-09-24T00:45:40.917Z,1.80
2018-09-24T00:46:40.905Z,1.10
2018-09-24T00:47:40.894Z,1.50
2018-09-24T00:48:40.883Z,1.20
2018-09-24T00:49:40.902Z,1.40
2018-09-24T00:50:40.886Z,1.00
2018-09-24T00:51:40.848Z,1.50
2018-09-24T00:52:40.860Z,1.40
2018-09-24T00:53:40.862Z,1.20
2018-09-24T00:54:40.816Z,1.40
2018-09-24T00:55:40.853Z,1.30
2018-09-24T00:56:40.793Z,1.70
2018-09-24T00:57:40.781Z,1.00
2018-09-24T00:58:40.788Z,1.10
2018-09-24T00:59:40.766Z,1.50
2018-09-24T01:00:40.754Z,1.30
2018-09-24T01:01:40.774Z,1.60
2018-09-24T01:02:40.727Z,1.20
2018-09-24T01:03:40.724Z,1.70
2018-09-24T01:04:40.704Z,1.30
2018-09-24T01:05:40.733Z,1.30
2018-09-24T01:06:40.681Z,1.80
2018-09-24T01:07:40.710Z,1.20
2018-09-24T01:08:40.661Z,1.40
2018-09-24T01:09:40.676Z,1.10
2018-09-24T01:10:40.636Z,1.30
2018-09-24T01:11:40.625Z,1.30
2018-09-24T01:12:40.613Z,1.50
2018-09-24T01:13:40.617Z,1.60
2018-09-24T01:14:40.605Z,1.40
2018-09-24T01:15:40.599Z,1.20
2018-09-24T01:16:40.570Z,1.00
2018-09-24T01:17:40.583Z,1.20
2018-09-24T01:18:40.546Z,1.20
2018-09-24T01:19:40.554Z,1.50
2018-09-24T01:20:40.528Z,0.90
2018-09-24T01:21:40.517Z,1.20
2018-09-24T01:22:40.517Z,1.30
2018-09-24T01:23:40.513Z,1.60
2018-09-24T01:24:40.480Z,1.30
2018-09-24T01:25:40.477Z,1.50
2018-09-24T01:26:40.457Z,1.60
2018-09-24T01:27:40.447Z,1.00
2018-09-24T01:28:40.479Z,1.80
2018-09-24T01:29:40.444Z,1.40
2018-09-24T01:30:40.420Z,1.10
2018-09-24T01:31:40.403Z,1.30
2018-09-24T01:32:40.391Z,1.40
2018-09-24T01:33:40.382Z,1.70
2018-09-24T01:34:40.403Z,1.40
2018-09-24T01:35:40.372Z,1.50
2018-09-24T01:36:40.360Z,1.10
2018-09-24T01:37:48.019Z,1.70
2018-09-24T01:38:40.383Z,1.40
2018-09-24T01:39:40.378Z,1.50
2018-09-24T01:40:40.341Z,1.70
2018-09-24T01:41:40.341Z,1.70
2018-09-24T01:42:40.344Z,1.10
2018-09-24T01:43:40.284Z,1.50
2018-09-24T01:44:40.302Z,1.20
2018-09-24T01:45:40.264Z,1.20
2018-09-24T01:46:40.247Z,1.20
2018-09-24T01:47:40.223Z,1.20
2018-09-24T01:48:48.576Z,1.70
2018-09-24T01:49:40.224Z,1.20
2018-09-24T01:50:40.235Z,1.20
2018-09-24T01:51:40.220Z,1.30
2018-09-24T01:52:40.267Z,1.40
2018-09-24T01:53:40.168Z,1.30
2018-09-24T01:54:40.143Z,1.40
2018-09-24T01:55:40.146Z,1.40
2018-09-24T01:56:40.173Z,1.00
2018-09-24T01:57:40.111Z,1.50
2018-09-24T01:58:40.107Z,1.60
2018-09-24T01:59:47.767Z,1.60
2018-09-24T02:00:40.146Z,1.20
2018-09-24T02:01:40.071Z,1.40
2018-09-24T02:02:40.100Z,1.10
2018-09-24T02:03:40.074Z,1.30
2018-09-24T02:04:40.100Z,1.20
2018-09-24T02:05:40.040Z,1.50
2018-09-24T02:06:40.013Z,1.50
2018-09-24T02:07:40.019Z,1.20
2018-09-24T02:08:40.005Z,1.30
2018-09-24T02:09:40.021Z,1.30
2018-09-24T02:10:47.562Z,1.40
2018-09-24T02:11:39.974Z,1.50
2018-09-24T02:12:39.957Z,1.10
2018-09-24T02:13:39.938Z,1.10
2018-09-24T02:14:39.979Z,1.30
2018-09-24T02:15:39.935Z,1.50
2018-09-24T02:16:39.933Z,1.60
2018-09-24T02:17:39.989Z,1.30
2018-09-24T02:18:39.878Z,1.20
2018-09-24T02:19:39.896Z,1.40
2018-09-24T02:20:39.901Z,1.10
2018-09-24T02:21:39.843Z,1.30
2018-09-24T02:22:39.831Z,1.30
2018-09-24T02:23:39.913Z,1.50
2018-09-24T02:24:39.822Z,1.60
2018-09-24T02:25:39.811Z,0.80
2018-09-24T02:26:39.802Z,1.60
2018-09-24T02:27:39.813Z,1.30
2018-09-24T02:28:39.789Z,1.70
2018-09-24T02:29:39.756Z,1.60
2018-09-24T02:30:39.742Z,1.10
2018-09-24T02:31:39.773Z,1.40
2018-09-24T02:32:39.741Z,1.50
2018-09-24T02:33:39.765Z,1.30
2018-09-24T02:34:39.731Z,1.30
2018-09-24T02:35:39.705Z,1.70
2018-09-24T02:36:39.686Z,1.20
2018-09-24T02:37:39.703Z,1.30
2018-09-24T02:38:39.665Z,1.10
2018-09-24T02:39:39.664Z,1.40
2018-09-24T02:40:39.632Z,2.00
2018-09-24T02:41:48.628Z,1.30
2018-09-24T02:42:39.638Z,1.80
2018-09-24T02:43:39.598Z,1.40
2018-09-24T02:44:39.647Z,1.40
2018-09-24T02:45:39.599Z,1.10
2018-09-24T02:46:39.632Z,1.60
2018-09-24T02:47:39.659Z,1.30
2018-09-24T02:48:39.550Z,1.30
2018-09-24T02:49:39.529Z,1.40
2018-09-24T02:50:39.561Z,1.30
2018-09-24T02:51:39.534Z,1.40
2018-09-24T02:52:39.501Z,1.50
2018-09-24T02:53:39.486Z,1.10
2018-09-24T02:54:39.495Z,1.60
2018-09-24T02:55:39.464Z,1.10
2018-09-24T02:56:39.459Z,1.50
2018-09-24T02:57:39.472Z,1.60
2018-09-24T02:58:39.431Z,1.10
2018-09-24T02:59:39.418Z,1.30
2018-09-24T03:00:39.449Z,1.50
2018-09-24T03:01:39.419Z,1.50
2018-09-24T03:02:39.389Z,1.40
2018-09-24T03:03:39.383Z,1.00
2018-09-24T03:04:39.367Z,1.20
2018-09-24T03:05:39.352Z,1.30
2018-09-24T03:06:39.377Z,1.30
2018-09-24T03:07:39.337Z,1.50
2018-09-24T03:08:39.324Z,1.50
2018-09-24T03:09:39.310Z,1.10
2018-09-24T03:10:39.308Z,1.70
2018-09-24T03:11:39.305Z,1.20
2018-09-24T03:12:39.297Z,1.20
2018-09-24T03:13:39.264Z,1.80
2018-09-24T03:14:39.280Z,1.20
2018-09-24T03:15:39.242Z,1.50
2018-09-24T03:16:39.231Z,1.10
2018-09-24T03:17:39.220Z,1.40
2018-09-24T03:18:39.271Z,1.70
2018-09-24T03:19:39.223Z,1.70
2018-09-24T03:20:39.187Z,1.30
2018-09-24T03:21:39.180Z,1.50
2018-09-24T03:22:39.186Z,1.00
2018-09-24T03:23:39.154Z,1.50
2018-09-24T03:24:39.161Z,1.90
2018-09-24T03:25:39.159Z,1.20
2018-09-24T03:26:39.121Z,1.20
2018-09-24T03:27:39.110Z,1.70
2018-09-24T03:28:39.099Z,1.30
2018-09-24T03:29:39.088Z,1.30
2018-09-24T03:30:39.098Z,1.00
2018-09-24T03:31:39.073Z,1.10
2018-09-24T03:32:39.066Z,1.40
2018-09-24T03:33:39.043Z,1.30
2018-09-24T03:34:39.035Z,1.60
2018-09-24T03:35:39.020Z,1.20
2018-09-24T03:36:46.741Z,1.60
2018-09-24T03:37:39.019Z,1.40
2018-09-24T03:38:38.991Z,1.50
2018-09-24T03:39:38.997Z,1.40
2018-09-24T03:40:38.978Z,1.10
2018-09-24T03:41:38.953Z,1.80
2018-09-24T03:42:39.048Z,1.20
2018-09-24T03:43:39.029Z,1.50
2018-09-24T03:44:38.925Z,1.40
2018-09-24T03:45:38.921Z,1.50
2018-09-24T03:46:38.899Z,1.40
2018-09-24T03:47:38.953Z,1.60
2018-09-24T03:48:38.926Z,1.40
2018-09-24T03:49:38.884Z,1.60
2018-09-24T03:50:38.870Z,1.00
2018-09-24T03:51:38.869Z,1.40
2018-09-24T03:52:38.842Z,1.10
2018-09-24T03:53:38.863Z,1.40
2018-09-24T03:54:46.477Z,1.20
2018-09-24T03:55:38.827Z,1.70
2018-09-24T03:56:38.787Z,1.60
2018-09-24T03:57:38.785Z,1.40
2018-09-24T03:58:38.797Z,1.80
2018-09-24T03:59:38.793Z,1.50
2018-09-24T04:00:38.845Z,1.00
2018-09-24T04:01:38.765Z,1.30
2018-09-24T04:02:38.799Z,1.30
2018-09-24T04:03:38.708Z,1.20
2018-09-24T04:04:38.709Z,1.10
2018-09-24T04:05:38.796Z,1.20
2018-09-24T04:06:38.675Z,1.10
2018-09-24T04:07:38.710Z,1.30
2018-09-24T04:08:38.679Z,1.50
2018-09-24T04:09:38.653Z,1.30
2018-09-24T04:10:38.668Z,1.20
2018-09-24T04:11:38.701Z,1.30
2018-09-24T04:12:38.613Z,1.50
2018-09-24T04:13:46.516Z,1.80
2018-09-24T04:14:38.633Z,1.40
2018-09-24T04:15:38.578Z,1.60
2018-09-24T04:16:38.707Z,1.30
2018-09-24T04:17:38.561Z,1.40
2018-09-24T04:18:38.541Z,1.30
2018-09-24T04:19:38.637Z,1.00
2018-09-24T04:20:38.532Z,1.10
2018-09-24T04:21:38.510Z,1.40
2018-09-24T04:22:38.517Z,1.30
2018-09-24T04:23:38.493Z,1.30
2018-09-24T04:24:38.515Z,1.20
2018-09-24T04:25:38.538Z,1.20
2018-09-24T04:26:38.495Z,1.20
2018-09-24T04:27:38.488Z,1.20
2018-09-24T04:28:38.447Z,1.30
2018-09-24T04:29:38.425Z,1.20
2018-09-24T04:30:38.408Z,1.20
2018-09-24T04:31:46.074Z,1.10
2018-09-24T04:32:38.418Z,1.70
2018-09-24T04:33:38.375Z,1.50
2018-09-24T04:34:38.387Z,1.10
2018-09-24T04:35:38.356Z,1.00
2018-09-24T04:36:38.367Z,1.40
2018-09-24T04:37:38.399Z,1.20
2018-09-24T04:38:38.366Z,1.40
2018-09-24T04:39:38.436Z,1.50
2018-09-24T04:40:38.326Z,1.20
2018-09-24T04:41:38.290Z,1.20
2018-09-24T04:42:38.398Z,0.90
2018-09-24T04:43:38.278Z,1.20
2018-09-24T04:44:38.254Z,1.40
2018-09-24T04:45:38.263Z,1.40
2018-09-24T04:46:38.243Z,1.30
2018-09-24T04:47:38.220Z,1.10
2018-09-24T04:48:38.249Z,1.30
2018-09-24T04:49:38.197Z,1.30
2018-09-24T04:50:45.799Z,1.10
2018-09-24T04:51:38.191Z,1.50
2018-09-24T04:52:38.182Z,1.20
2018-09-24T04:53:38.186Z,1.10
2018-09-24T04:54:38.192Z,1.50
2018-09-24T04:55:38.193Z,1.30
2018-09-24T04:56:38.121Z,1.20
2018-09-24T04:57:38.151Z,1.10
2018-09-24T04:58:38.174Z,1.10
2018-09-24T04:59:38.095Z,1.30
2018-09-24T05:00:38.082Z,1.20
2018-09-24T05:01:38.086Z,1.30
2018-09-24T05:02:38.069Z,1.60
2018-09-24T05:03:38.064Z,1.50
2018-09-24T05:04:38.031Z,1.30
2018-09-24T05:05:38.021Z,1.20
2018-09-24T05:06:38.030Z,1.10
2018-09-24T05:07:38.001Z,1.20
2018-09-24T05:08:38.042Z,1.00
2018-09-24T05:09:45.650Z,0.90
2018-09-24T05:10:37.995Z,1.70
2018-09-24T05:11:37.970Z,1.30
2018-09-24T05:12:37.989Z,2.00
2018-09-24T05:13:37.935Z,1.20
2018-09-24T05:14:37.951Z,1.20
2018-09-24T05:15:37.948Z,1.20
2018-09-24T05:16:37.934Z,1.60
2018-09-24T05:17:38.004Z,1.60
2018-09-24T05:18:37.929Z,1.40
2018-09-24T05:19:37.888Z,1.20
2018-09-24T05:20:37.910Z,1.40
2018-09-24T05:21:37.945Z,1.20
2018-09-24T05:22:37.874Z,1.40
2018-09-24T05:23:37.824Z,1.50
2018-09-24T05:24:37.807Z,1.40
2018-09-24T05:25:37.808Z,1.70
2018-09-24T05:26:37.804Z,1.20
2018-09-24T05:27:37.776Z,1.40
2018-09-24T05:28:45.728Z,1.20
2018-09-24T05:29:37.795Z,1.80
2018-09-24T05:30:37.792Z,1.30
2018-09-24T05:31:37.878Z,1.30
2018-09-24T05:32:37.766Z,1.50
2018-09-24T05:33:37.751Z,1.50
2018-09-24T05:34:37.752Z,1.30
2018-09-24T05:35:37.699Z,1.70
2018-09-24T05:36:37.696Z,1.20
2018-09-24T05:37:37.701Z,1.30
2018-09-24T05:38:37.658Z,1.50
2018-09-24T05:39:37.658Z,1.60
2018-09-24T05:40:37.633Z,0.90
2018-09-24T05:41:37.630Z,1.10
2018-09-24T05:42:37.609Z,1.40
2018-09-24T05:43:37.610Z,1.10
2018-09-24T05:44:37.598Z,1.50
2018-09-24T05:45:37.593Z,1.50
2018-09-24T05:46:37.564Z,1.20
2018-09-24T05:47:45.247Z,1.30
2018-09-24T05:48:37.590Z,1.70
2018-09-24T05:49:37.535Z,1.30
2018-09-24T05:50:37.542Z,1.50
2018-09-24T05:51:37.585Z,1.10
2018-09-24T05:52:37.514Z,1.30
2018-09-24T05:53:37.572Z,1.50
2018-09-24T05:54:37.480Z,1.70
2018-09-24T05:55:37.476Z,1.50
2018-09-24T05:56:37.523Z,1.20
2018-09-24T05:57:37.487Z,1.50
2018-09-24T05:58:37.457Z,1.40
2018-09-24T05:59:37.419Z,1.10
2018-09-24T06:00:37.427Z,1.10
2018-09-24T06:01:37.402Z,1.30
2018-09-24T06:02:37.455Z,1.20
2018-09-24T06:03:37.414Z,1.40
2018-09-24T06:04:45.026Z,1.60
2018-09-24T06:05:37.359Z,1.10
2018-09-24T06:06:37.345Z,1.40
2018-09-24T06:07:37.379Z,1.60
2018-09-24T06:08:37.319Z,1.20
2018-09-24T06:09:37.329Z,1.00
2018-09-24T06:10:37.317Z,1.20
2018-09-24T06:11:37.300Z,1.10
2018-09-24T06:12:37.277Z,1.20
2018-09-24T06:13:37.272Z,1.40
2018-09-24T06:14:37.253Z,1.40
2018-09-24T06:15:37.267Z,1.20
2018-09-24T06:16:37.255Z,1.50
2018-09-24T06:17:37.272Z,1.20
2018-09-24T06:18:37.278Z,1.10
2018-09-24T06:19:37.252Z,1.50
2018-09-24T06:20:37.210Z,1.00
2018-09-24T06:21:37.254Z,1.40
2018-09-24T06:22:37.200Z,1.50
2018-09-24T06:23:37.154Z,1.10
2018-09-24T06:24:46.273Z,0.90
2018-09-24T06:25:37.135Z,1.80
2018-09-24T06:26:37.122Z,1.40
2018-09-24T06:27:37.160Z,0.80
2018-09-24T06:28:37.097Z,1.70
2018-09-24T06:29:37.141Z,1.20
2018-09-24T06:30:37.138Z,1.70
2018-09-24T06:31:37.111Z,1.20
2018-09-24T06:32:37.084Z,1.30
2018-09-24T06:33:37.075Z,1.40
2018-09-24T06:34:37.032Z,1.30
2018-09-24T06:35:37.037Z,1.20
2018-09-24T06:36:37.027Z,1.20
2018-09-24T06:37:36.996Z,1.20
2018-09-24T06:38:37.021Z,1.40
2018-09-24T06:39:36.988Z,2.00
2018-09-24T06:40:36.961Z,1.30
2018-09-24T06:41:36.951Z,1.90
2018-09-24T06:42:46.816Z,1.50
2018-09-24T06:43:36.964Z,1.90
2018-09-24T06:44:36.918Z,2.30
2018-09-24T06:45:36.930Z,3.00
2018-09-24T06:46:36.913Z,3.20
2018-09-24T06:47:36.886Z,3.30
2018-09-24T06:48:36.917Z,3.10
2018-09-24T06:49:36.909Z,3.20
2018-09-24T06:50:36.895Z,3.20
2018-09-24T06:51:36.843Z,2.30
2018-09-24T06:52:36.855Z,3.20
2018-09-24T06:53:36.886Z,3.00
2018-09-24T06:54:36.833Z,3.30
2018-09-24T06:55:36.796Z,3.40
2018-09-24T06:56:36.787Z,2.90
2018-09-24T06:57:36.814Z,2.80
2018-09-24T06:58:36.816Z,2.20
2018-09-24T06:59:36.846Z,1.90
2018-09-24T07:00:36.861Z,2.00
2018-09-24T07:02:51.133Z,3.70
2018-09-24T07:03:51.052Z,3.30
2018-09-24T07:04:51.036Z,2.50
2018-09-24T07:05:51.272Z,3.10
2018-09-24T07:06:51.067Z,2.40
2018-09-24T07:07:51.175Z,1.30
2018-09-24T07:08:50.998Z,1.50
2018-09-24T07:09:50.944Z,2.00
2018-09-24T07:10:50.954Z,1.40
2018-09-24T07:11:50.948Z,1.50
2018-09-24T07:12:50.902Z,1.60
2018-09-24T07:13:50.920Z,1.20
2018-09-24T07:14:50.875Z,1.40
2018-09-24T07:15:50.866Z,1.50
2018-09-24T07:16:50.876Z,1.20
2018-09-24T07:17:50.859Z,1.70
2018-09-24T07:18:50.892Z,1.20
2018-09-24T07:19:50.824Z,1.90
2018-09-24T07:20:58.688Z,1.60
2018-09-24T07:21:50.836Z,2.00
2018-09-24T07:22:50.801Z,2.20
2018-09-24T07:23:50.833Z,2.50
2018-09-24T07:24:50.804Z,2.00
2018-09-24T07:25:50.806Z,1.60
2018-09-24T07:26:50.746Z,1.40
2018-09-24T07:27:50.779Z,1.60
2018-09-24T07:28:50.937Z,2.00
2018-09-24T07:29:50.892Z,1.70
2018-09-24T07:30:50.780Z,1.90
2018-09-24T07:31:50.693Z,2.00
2018-09-24T07:32:50.726Z,1.90
2018-09-24T07:33:50.683Z,1.80
2018-09-24T07:34:50.668Z,2.30
2018-09-24T07:35:50.664Z,1.70
2018-09-24T07:36:50.744Z,1.70
2018-09-24T07:37:50.646Z,2.40
2018-09-24T07:38:50.610Z,2.20
2018-09-24T07:39:50.601Z,1.30
2018-09-24T07:40:50.609Z,1.70
2018-09-24T07:41:50.652Z,1.40
2018-09-24T07:42:58.724Z,1.10
2018-09-24T07:43:50.593Z,1.20
2018-09-24T07:44:50.567Z,1.10
2018-09-24T07:45:50.576Z,1.40
2018-09-24T07:46:50.538Z,1.30
2018-09-24T07:47:50.570Z,1.30
2018-09-24T07:48:50.565Z,1.40
2018-09-24T07:49:50.493Z,1.40
2018-09-24T07:50:50.607Z,1.40
2018-09-24T07:51:50.513Z,1.00
2018-09-24T07:52:50.547Z,1.40
2018-09-24T07:53:50.585Z,1.50
2018-09-24T07:54:50.427Z,1.30
2018-09-24T07:55:50.433Z,1.30
2018-09-24T07:56:50.460Z,1.20
2018-09-24T07:57:50.398Z,1.00
2018-09-24T07:58:50.382Z,1.20
2018-09-24T07:59:50.472Z,1.30
2018-09-24T08:00:50.423Z,1.60
2018-09-24T08:01:58.212Z,1.30
2018-09-24T08:02:50.477Z,1.00
2018-09-24T08:03:50.435Z,1.20
2018-09-24T08:04:50.395Z,1.50
2018-09-24T08:05:50.413Z,1.20
2018-09-24T08:06:50.410Z,1.60
2018-09-24T08:07:50.330Z,1.30
2018-09-24T08:08:50.302Z,1.00
2018-09-24T08:09:50.348Z,0.90
2018-09-24T08:10:50.360Z,0.80
2018-09-24T08:11:50.277Z,1.00
2018-09-24T08:12:50.313Z,1.10
2018-09-24T08:13:50.271Z,1.00
2018-09-24T08:14:50.203Z,1.00
2018-09-24T08:15:50.192Z,0.90
2018-09-24T08:16:50.218Z,1.50
2018-09-24T08:17:50.172Z,1.20
2018-09-24T08:18:50.175Z,1.10
2018-09-24T08:19:50.148Z,1.20
2018-09-24T08:20:58.067Z,1.30
2018-09-24T08:21:50.160Z,1.10
2018-09-24T08:22:50.465Z,1.10
2018-09-24T08:23:50.154Z,1.00
2018-09-24T08:24:50.397Z,1.00
2018-09-24T08:25:50.130Z,1.50
2018-09-24T08:26:50.071Z,0.90
2018-09-24T08:27:50.054Z,1.30
2018-09-24T08:28:50.158Z,1.00
2018-09-24T08:29:50.032Z,1.10
2018-09-24T08:30:50.020Z,1.10
2018-09-24T08:31:50.084Z,0.80
2018-09-24T08:32:50.039Z,1.10
2018-09-24T08:33:49.988Z,1.10
2018-09-24T08:34:49.993Z,0.90
2018-09-24T08:35:50.016Z,1.10
2018-09-24T08:36:49.956Z,1.20
2018-09-24T08:37:49.944Z,0.90
2018-09-24T08:38:49.939Z,1.10
2018-09-24T08:39:59.207Z,0.90
2018-09-24T08:40:49.950Z,0.80
2018-09-24T08:41:49.929Z,0.80
2018-09-24T08:42:50.093Z,1.00
2018-09-24T08:43:49.960Z,0.60
2018-09-24T08:44:49.867Z,0.90
2018-09-24T08:45:49.974Z,1.10
2018-09-24T08:46:49.946Z,0.90
2018-09-24T08:47:50.033Z,0.70
2018-09-24T08:48:49.901Z,0.80
2018-09-24T08:49:49.918Z,0.90
2018-09-24T08:50:49.813Z,1.20
2018-09-24T08:51:49.786Z,0.80
2018-09-24T08:52:49.776Z,1.10
2018-09-24T08:53:49.818Z,1.00
2018-09-24T08:54:49.821Z,1.20
2018-09-24T08:55:49.744Z,1.00
2018-09-24T08:56:49.794Z,0.70
2018-09-24T08:57:49.767Z,1.20
2018-09-24T08:58:49.732Z,0.80
2018-09-24T08:59:59.001Z,0.70
2018-09-24T09:00:49.755Z,0.80
2018-09-24T09:01:49.678Z,0.60
2018-09-24T09:02:49.745Z,1.00
2018-09-24T09:03:50.040Z,0.90
2018-09-24T09:04:49.781Z,1.10
2018-09-24T09:05:49.766Z,0.60
2018-09-24T09:06:49.915Z,0.80
2018-09-24T09:07:49.639Z,1.10
2018-09-24T09:08:49.606Z,1.00
2018-09-24T09:09:49.618Z,0.90
2018-09-24T09:10:49.592Z,0.80
2018-09-24T09:11:49.562Z,0.90
2018-09-24T09:12:49.593Z,1.10
2018-09-24T09:13:49.558Z,1.10
2018-09-24T09:14:49.528Z,1.20
2018-09-24T09:15:49.515Z,0.70
2018-09-24T09:16:49.525Z,0.90
2018-09-24T09:17:49.541Z,0.70
2018-09-24T09:18:58.245Z,1.00
2018-09-24T09:19:49.756Z,0.80
2018-09-24T09:20:49.511Z,1.20
2018-09-24T09:21:49.654Z,0.60
2018-09-24T09:22:49.530Z,0.70
2018-09-24T09:23:49.493Z,1.10
2018-09-24T09:24:49.618Z,0.80
2018-09-24T09:25:49.482Z,0.90
2018-09-24T09:26:49.392Z,1.10
2018-09-24T09:27:49.385Z,0.70
2018-09-24T09:28:49.440Z,0.70
2018-09-24T09:29:49.356Z,0.90
2018-09-24T09:30:49.345Z,0.90
2018-09-24T09:31:49.355Z,0.90
2018-09-24T09:32:49.349Z,0.70
2018-09-24T09:33:49.366Z,0.50
2018-09-24T09:34:49.321Z,1.00
2018-09-24T09:35:49.291Z,0.70
2018-09-24T09:36:49.280Z,0.80
2018-09-24T09:37:57.198Z,0.80
2018-09-24T09:38:49.354Z,0.80
2018-09-24T09:39:49.400Z,1.30
2018-09-24T09:40:49.348Z,0.70
2018-09-24T09:41:49.366Z,0.90
2018-09-24T09:42:49.243Z,0.80
2018-09-24T09:43:49.199Z,0.70
2018-09-24T09:44:49.250Z,0.60
2018-09-24T09:45:49.178Z,0.60
2018-09-24T09:46:49.258Z,0.50
2018-09-24T09:47:49.211Z,0.70
2018-09-24T09:48:49.146Z,0.70
2018-09-24T09:49:49.133Z,0.60
2018-09-24T09:50:49.122Z,0.90
2018-09-24T09:51:49.117Z,1.00
2018-09-24T09:52:49.140Z,0.60
2018-09-24T09:53:49.090Z,0.60
2018-09-24T09:54:49.077Z,0.60
2018-09-24T09:55:49.067Z,1.20
2018-09-24T09:56:56.973Z,0.50
2018-09-24T09:57:49.132Z,0.70
2018-09-24T09:58:49.056Z,0.80
2018-09-24T09:59:49.170Z,0.60
2018-09-24T10:00:49.014Z,0.50
2018-09-24T10:01:49.027Z,0.60
2018-09-24T10:02:49.021Z,1.00
2018-09-24T10:03:48.982Z,0.80
2018-09-24T10:04:49.188Z,0.80
2018-09-24T10:05:49.281Z,0.50
2018-09-24T10:06:49.092Z,0.50
2018-09-24T10:07:48.956Z,0.70
2018-09-24T10:08:48.948Z,0.70
2018-09-24T10:09:48.951Z,0.70
2018-09-24T10:10:48.900Z,0.60
2018-09-24T10:11:48.888Z,0.70
2018-09-24T10:12:48.921Z,0.60
2018-09-24T10:13:48.867Z,0.50
2018-09-24T10:14:49.000Z,0.90
2018-09-24T10:15:48.848Z,0.60
2018-09-24T10:16:56.899Z,0.70
2018-09-24T10:17:48.895Z,0.70
2018-09-24T10:18:48.834Z,1.10
2018-09-24T10:19:48.882Z,0.70
2018-09-24T10:20:49.092Z,1.00
2018-09-24T10:21:48.863Z,1.00
2018-09-24T10:22:48.807Z,0.70
2018-09-24T10:23:48.814Z,0.40
2018-09-24T10:24:48.742Z,0.50
2018-09-24T10:25:48.764Z,0.60
2018-09-24T10:26:48.805Z,0.70
2018-09-24T10:27:48.711Z,0.50
2018-09-24T10:28:48.701Z,1.00
2018-09-24T10:29:48.733Z,0.60
2018-09-24T10:30:48.774Z,0.60
2018-09-24T10:31:48.831Z,0.70
2018-09-24T10:32:48.652Z,0.50
2018-09-24T10:33:48.755Z,0.90
2018-09-24T10:34:48.638Z,0.70
2018-09-24T10:35:57.302Z,0.80
2018-09-24T10:36:48.651Z,0.80
2018-09-24T10:37:48.665Z,0.80
2018-09-24T10:38:48.629Z,0.60
2018-09-24T10:39:48.793Z,0.70
2018-09-24T10:40:48.627Z,0.60
2018-09-24T10:41:48.562Z,1.00
2018-09-24T10:42:48.564Z,1.00
2018-09-24T10:43:48.528Z,1.00
2018-09-24T10:44:48.517Z,0.70
2018-09-24T10:45:48.573Z,0.70
2018-09-24T10:46:48.493Z,1.10
2018-09-24T10:47:48.538Z,0.70
2018-09-24T10:48:48.478Z,1.00
2018-09-24T10:49:48.461Z,0.80
2018-09-24T10:50:48.468Z,0.90
2018-09-24T10:51:48.455Z,0.90
2018-09-24T10:52:48.499Z,0.60
2018-09-24T10:53:48.465Z,1.10
2018-09-24T10:54:56.136Z,0.70
2018-09-24T10:55:48.453Z,0.90
2018-09-24T10:56:48.558Z,0.60
2018-09-24T10:57:48.407Z,0.70
2018-09-24T10:58:48.424Z,0.70
2018-09-24T10:59:48.372Z,0.90
2018-09-24T11:00:48.413Z,0.60
2018-09-24T11:01:48.347Z,0.60
2018-09-24T11:02:48.334Z,0.90
2018-09-24T11:03:48.331Z,1.10
2018-09-24T11:04:48.306Z,0.70
2018-09-24T11:05:48.321Z,0.70
2018-09-24T11:06:48.278Z,0.90
2018-09-24T11:07:48.375Z,0.70
2018-09-24T11:08:48.271Z,0.90
2018-09-24T11:09:48.235Z,1.10
2018-09-24T11:10:48.224Z,0.70
2018-09-24T11:11:48.454Z,0.50
2018-09-24T11:12:48.208Z,0.80
2018-09-24T11:13:55.897Z,0.90
2018-09-24T11:14:48.210Z,0.60
2018-09-24T11:15:48.316Z,1.20
2018-09-24T11:16:48.492Z,0.80
2018-09-24T11:17:48.420Z,1.10
2018-09-24T11:18:48.305Z,0.70
2018-09-24T11:19:48.253Z,0.90
2018-09-24T11:20:48.143Z,0.80
2018-09-24T11:21:48.114Z,0.60
2018-09-24T11:22:48.127Z,0.70
2018-09-24T11:23:48.225Z,0.50
2018-09-24T11:24:48.064Z,1.20
2018-09-24T11:25:48.094Z,0.50
2018-09-24T11:26:48.054Z,0.90
2018-09-24T11:27:48.152Z,0.80
2018-09-24T11:28:48.023Z,0.70
2018-09-24T11:29:48.057Z,0.80
2018-09-24T11:30:48.009Z,1.00
2018-09-24T11:31:48.005Z,0.90
2018-09-24T11:32:47.973Z,0.70
2018-09-24T11:33:56.261Z,1.50
2018-09-24T11:34:47.991Z,1.00
2018-09-24T11:35:47.939Z,1.20
2018-09-24T11:36:47.993Z,1.00
2018-09-24T11:37:47.991Z,0.70
2018-09-24T11:38:48.346Z,0.70
2018-09-24T11:39:47.912Z,0.80
2018-09-24T11:40:47.945Z,1.00
2018-09-24T11:41:47.908Z,1.10
2018-09-24T11:42:47.894Z,1.30
2018-09-24T11:43:47.852Z,1.40
2018-09-24T11:44:47.837Z,1.50
2018-09-24T11:45:47.862Z,1.00
2018-09-24T11:46:47.857Z,1.00
2018-09-24T11:47:47.821Z,1.20
2018-09-24T11:48:47.791Z,1.30
2018-09-24T11:49:47.785Z,1.20
2018-09-24T11:50:47.859Z,1.10
2018-09-24T11:51:47.889Z,1.10
2018-09-24T11:53:02.048Z,1.20
2018-09-24T11:53:47.739Z,1.80
2018-09-24T11:54:47.765Z,1.80
2018-09-24T11:55:47.878Z,1.50
2018-09-24T11:56:47.788Z,1.60
2018-09-24T11:57:47.745Z,2.00
2018-09-24T11:58:47.810Z,2.40
2018-09-24T11:59:47.716Z,1.10
2018-09-24T12:00:47.657Z,1.30
2018-09-24T12:01:47.665Z,1.30
2018-09-24T12:02:47.636Z,1.30
2018-09-24T12:03:47.623Z,1.50
2018-09-24T12:04:47.666Z,1.20
2018-09-24T12:05:56.000Z,1.00
2018-09-24T12:06:47.791Z,1.40
2018-09-24T12:07:47.598Z,1.20
2018-09-24T12:08:47.637Z,1.10
2018-09-24T12:09:47.643Z,0.60
2018-09-24T12:10:47.605Z,1.00
2018-09-24T12:11:47.665Z,1.20
2018-09-24T12:12:47.649Z,1.00
2018-09-24T12:13:47.571Z,0.70
2018-09-24T12:14:47.584Z,0.80
2018-09-24T12:15:47.509Z,0.70
2018-09-24T12:16:47.481Z,1.30
2018-09-24T12:17:47.525Z,1.30
2018-09-24T12:18:47.567Z,1.00
2018-09-24T12:19:47.445Z,1.20
2018-09-24T12:20:47.432Z,1.20
2018-09-24T12:21:47.456Z,0.60
2018-09-24T12:22:47.423Z,1.00
2018-09-24T12:23:47.411Z,0.80
2018-09-24T12:24:47.420Z,1.00
2018-09-24T12:25:55.550Z,1.30
2018-09-24T12:26:47.584Z,1.20
2018-09-24T12:27:47.412Z,1.20
2018-09-24T12:28:47.492Z,0.90
2018-09-24T12:29:47.391Z,1.10
2018-09-24T12:30:47.404Z,1.10
2018-09-24T12:31:47.352Z,1.20
2018-09-24T12:32:47.475Z,1.60
2018-09-24T12:33:47.287Z,1.40
2018-09-24T12:34:47.322Z,1.20
2018-09-24T12:35:47.308Z,1.00
2018-09-24T12:36:47.262Z,1.00
2018-09-24T12:37:47.297Z,0.80
2018-09-24T12:38:47.507Z,1.00
2018-09-24T12:39:47.225Z,1.50
2018-09-24T12:40:47.366Z,1.20
2018-09-24T12:41:47.203Z,1.50
2018-09-24T12:42:47.215Z,1.20
2018-09-24T12:43:47.191Z,1.20
2018-09-24T12:44:55.383Z,0.90
2018-09-24T12:45:47.201Z,1.20
2018-09-24T12:46:47.164Z,1.00
2018-09-24T12:47:47.211Z,1.20
2018-09-24T12:48:47.139Z,0.80
2018-09-24T12:49:47.130Z,0.80
2018-09-24T12:50:47.124Z,0.70
2018-09-24T12:51:47.088Z,0.70
2018-09-24T12:52:47.074Z,0.70
2018-09-24T12:53:47.066Z,1.00
2018-09-24T12:54:47.117Z,1.30
2018-09-24T12:55:47.082Z,1.10
2018-09-24T12:56:47.091Z,1.10
2018-09-24T12:57:47.188Z,0.90
2018-09-24T12:58:47.117Z,1.40
2018-09-24T12:59:47.032Z,1.30
2018-09-24T13:00:46.997Z,0.90
2018-09-24T13:01:47.042Z,1.20
2018-09-24T13:02:46.961Z,1.20
2018-09-24T13:03:55.011Z,1.10
2018-09-24T13:04:46.970Z,1.50
2018-09-24T13:05:46.968Z,1.00
2018-09-24T13:06:47.223Z,1.20
2018-09-24T13:07:46.902Z,1.40
2018-09-24T13:08:46.983Z,1.20
2018-09-24T13:09:47.097Z,1.20
2018-09-24T13:10:46.897Z,1.00
2018-09-24T13:11:46.883Z,1.70
2018-09-24T13:12:46.866Z,1.30
2018-09-24T13:13:47.130Z,1.30
2018-09-24T13:14:46.841Z,1.10
2018-09-24T13:15:46.949Z,1.40
2018-09-24T13:16:46.850Z,1.40
2018-09-24T13:17:46.841Z,1.20
2018-09-24T13:18:46.780Z,1.30
2018-09-24T13:19:46.768Z,1.40